createdAt,value
2022-08-19T00:01:30.217Z,19.05
2022-08-19T00:03:59.203Z,19.01
2022-08-19T00:06:27.324Z,18.99
2022-08-19T00:09:08.595Z,18.97
2022-08-19T00:11:42.017Z,18.95
2022-08-19T00:14:13.700Z,18.91
2022-08-19T00:16:42.538Z,18.88
2022-08-19T00:19:10.377Z,18.84
2022-08-19T00:21:40.545Z,18.81
2022-08-19T00:24:09.521Z,18.81
2022-08-19T00:26:37.256Z,18.74
2022-08-19T00:29:05.443Z,18.73
2022-08-19T00:31:36.448Z,18.71
2022-08-19T00:36:50.409Z,18.67
2022-08-19T00:39:18.010Z,18.66
2022-08-19T00:41:48.613Z,18.67
2022-08-19T00:44:28.481Z,18.70
2022-08-19T00:46:58.768Z,18.73
2022-08-19T00:49:28.736Z,18.77
2022-08-19T00:52:02.685Z,18.78
2022-08-19T00:54:41.966Z,18.81
2022-08-19T00:57:18.063Z,18.79
2022-08-19T01:00:00.516Z,18.79
2022-08-19T01:02:30.444Z,18.81
2022-08-19T01:04:57.892Z,18.86
2022-08-19T01:07:27.289Z,18.84
2022-08-19T01:09:55.229Z,18.84
2022-08-19T01:12:28.621Z,18.80
2022-08-19T01:15:00.918Z,18.78
2022-08-19T01:20:35.339Z,18.76
2022-08-19T01:23:03.410Z,18.82
2022-08-19T01:25:47.861Z,18.82
2022-08-19T01:28:32.217Z,18.85
2022-08-19T01:31:08.141Z,18.84
2022-08-19T01:33:37.922Z,18.85
2022-08-19T01:36:23.511Z,18.86
2022-08-19T01:38:50.737Z,18.91
2022-08-19T01:41:18.916Z,18.94
2022-08-19T01:46:38.439Z,19.00
2022-08-19T01:49:06.753Z,19.06
2022-08-19T01:51:39.948Z,19.13
2022-08-19T01:54:08.865Z,19.18
2022-08-19T01:56:35.800Z,19.24
2022-08-19T01:59:08.370Z,19.29
2022-08-19T02:01:43.253Z,19.31
2022-08-19T02:04:23.274Z,19.41
2022-08-19T02:07:22.147Z,19.49
2022-08-19T02:09:49.737Z,19.61
2022-08-19T02:12:17.438Z,19.73
2022-08-19T02:14:44.796Z,19.79
2022-08-19T02:17:11.868Z,19.88
2022-08-19T02:19:59.164Z,19.89
2022-08-19T02:22:29.505Z,19.94
2022-08-19T02:24:56.811Z,19.90
2022-08-19T02:27:24.787Z,19.87
2022-08-19T02:29:57.662Z,19.79
2022-08-19T02:32:30.030Z,19.70
2022-08-19T02:34:59.362Z,19.62
2022-08-19T02:37:44.751Z,19.52
2022-08-19T02:40:15.286Z,19.38
2022-08-19T02:42:47.037Z,19.31
2022-08-19T02:45:21.561Z,19.26
2022-08-19T02:47:59.795Z,19.23
2022-08-19T02:50:30.102Z,19.21
2022-08-19T02:53:00.301Z,19.18
2022-08-19T02:55:27.057Z,19.20
2022-08-19T02:57:53.889Z,19.23
2022-08-19T03:00:20.718Z,19.25
2022-08-19T03:02:48.074Z,19.36
2022-08-19T03:05:14.990Z,19.42
2022-08-19T03:07:41.950Z,19.49
2022-08-19T03:10:09.229Z,19.63
2022-08-19T03:12:38.848Z,19.80
2022-08-19T03:15:08.555Z,19.90
2022-08-19T03:17:36.476Z,20.02
2022-08-19T03:20:08.017Z,20.08
2022-08-19T03:22:37.431Z,20.17
2022-08-19T03:25:10.062Z,20.21
2022-08-19T03:27:36.879Z,20.27
2022-08-19T03:30:07.068Z,20.31
2022-08-19T03:32:41.678Z,20.41
2022-08-19T03:35:12.839Z,20.49
2022-08-19T03:37:42.412Z,20.58
2022-08-19T03:40:17.433Z,20.70
2022-08-19T03:42:51.073Z,20.76
2022-08-19T03:47:42.812Z,20.77
2022-08-19T03:50:10.211Z,20.82
2022-08-19T03:52:37.553Z,20.84
2022-08-19T03:55:04.906Z,20.86
2022-08-19T03:57:32.346Z,20.80
2022-08-19T04:00:13.256Z,20.78
2022-08-19T04:03:00.269Z,20.76
2022-08-19T04:05:30.452Z,20.79
2022-08-19T04:08:00.439Z,20.75
2022-08-19T04:10:29.287Z,20.70
2022-08-19T04:12:56.345Z,20.69
2022-08-19T04:15:23.165Z,20.62
2022-08-19T04:17:50.104Z,20.58
2022-08-19T04:20:17.200Z,20.55
2022-08-19T04:22:44.099Z,20.56
2022-08-19T04:25:11.496Z,20.51
2022-08-19T04:27:44.277Z,20.51
2022-08-19T04:30:11.478Z,20.55
2022-08-19T04:32:38.162Z,20.52
2022-08-19T04:35:17.527Z,20.52
2022-08-19T04:37:46.241Z,20.60
2022-08-19T04:40:34.587Z,20.70
2022-08-19T04:43:02.176Z,20.78
2022-08-19T04:45:29.482Z,20.90
2022-08-19T04:48:27.163Z,21.00
2022-08-19T04:50:59.603Z,21.16
2022-08-19T04:53:29.760Z,21.30
2022-08-19T04:56:21.618Z,21.49
2022-08-19T04:58:48.754Z,21.62
2022-08-19T05:01:20.551Z,21.76
2022-08-19T05:03:47.571Z,21.94
2022-08-19T05:06:16.259Z,22.09
2022-08-19T06:08:34.549Z,26.37
2022-08-19T06:11:19.686Z,26.42
2022-08-19T06:13:48.682Z,26.53
2022-08-19T06:16:21.959Z,26.57
2022-08-19T06:18:49.477Z,26.81
2022-08-19T06:21:16.134Z,27.01
2022-08-19T06:23:42.678Z,27.27
2022-08-19T06:26:13.344Z,27.58
2022-08-19T06:28:43.834Z,27.96
2022-08-19T06:31:10.822Z,28.43
2022-08-19T06:33:38.446Z,28.77
2022-08-19T06:36:05.605Z,29.04
2022-08-19T06:38:34.763Z,29.32
2022-08-19T06:41:07.392Z,29.56
2022-08-19T06:43:34.303Z,29.82
2022-08-19T06:46:02.174Z,29.99
2022-08-19T06:48:28.768Z,30.19
2022-08-19T06:50:55.576Z,30.26
2022-08-19T06:53:22.267Z,30.31
2022-08-19T06:56:03.358Z,30.41
2022-08-19T06:58:33.704Z,30.44
2022-08-19T07:01:08.528Z,30.48
2022-08-19T07:03:37.903Z,30.48
2022-08-19T07:06:26.575Z,30.60
2022-08-19T07:08:59.218Z,30.63
2022-08-19T07:11:26.130Z,30.63
2022-08-19T07:13:54.161Z,30.69
2022-08-19T07:16:28.871Z,30.76
2022-08-19T07:18:57.645Z,30.94
2022-08-19T07:21:29.457Z,31.18
2022-08-19T07:24:01.883Z,31.36
2022-08-19T07:26:34.257Z,31.28
2022-08-19T07:29:02.559Z,31.21
2022-08-19T07:31:31.115Z,31.14
2022-08-19T07:33:58.050Z,31.17
2022-08-19T07:36:33.162Z,31.20
2022-08-19T07:39:04.054Z,31.22
2022-08-19T07:41:32.420Z,31.32
2022-08-19T07:44:04.570Z,31.58
2022-08-19T07:49:35.011Z,32.03
2022-08-19T07:52:06.168Z,32.12
2022-08-19T07:54:38.920Z,32.17
2022-08-19T07:57:06.803Z,32.28
2022-08-19T07:59:33.980Z,32.20
2022-08-19T08:02:01.622Z,32.10
2022-08-19T08:04:48.510Z,32.11
2022-08-19T08:07:35.596Z,32.09
2022-08-19T08:10:08.563Z,32.19
2022-08-19T08:13:09.306Z,32.32
2022-08-19T08:15:42.130Z,32.41
2022-08-19T08:18:09.384Z,32.42
2022-08-19T08:20:36.212Z,32.38
2022-08-19T08:23:21.976Z,32.35
2022-08-19T08:25:50.049Z,32.34
2022-08-19T08:28:18.121Z,32.31
2022-08-19T08:30:47.344Z,32.35
2022-08-19T08:35:43.354Z,32.69
2022-08-19T08:38:10.028Z,32.72
2022-08-19T08:40:54.600Z,32.91
2022-08-19T08:43:34.758Z,33.06
2022-08-19T08:46:30.745Z,33.30
2022-08-19T08:49:16.816Z,33.46
2022-08-19T08:51:48.555Z,33.52
2022-08-19T08:54:30.050Z,33.44
2022-08-19T08:56:59.765Z,33.52
2022-08-19T08:59:33.560Z,33.48
2022-08-19T09:02:01.345Z,33.39
2022-08-19T09:04:28.977Z,33.42
2022-08-19T09:07:26.464Z,33.58
2022-08-19T09:10:18.979Z,33.78
2022-08-19T09:12:52.220Z,34.01
2022-08-19T09:15:33.396Z,34.25
2022-08-19T09:18:07.242Z,34.48
2022-08-19T09:20:34.115Z,34.64
2022-08-19T09:23:00.801Z,34.88
2022-08-19T09:25:29.696Z,35.02
2022-08-19T09:28:03.109Z,35.01
2022-08-19T09:30:38.406Z,34.77
2022-08-19T09:33:06.208Z,34.48
2022-08-19T09:35:33.022Z,34.13
2022-08-19T09:38:17.039Z,33.94
2022-08-19T09:40:43.597Z,33.76
2022-08-19T09:43:13.391Z,33.75
2022-08-19T09:45:43.980Z,33.83
2022-08-19T09:50:36.050Z,33.88
2022-08-19T09:53:02.812Z,33.75
2022-08-19T09:55:31.589Z,33.70
2022-08-19T09:58:02.810Z,33.58
2022-08-19T10:00:31.249Z,33.41
2022-08-19T10:02:57.897Z,33.26
2022-08-19T10:05:43.348Z,33.03
2022-08-19T10:08:13.292Z,32.62
2022-08-19T10:10:46.307Z,32.40
2022-08-19T10:13:14.327Z,32.35
2022-08-19T10:15:45.038Z,32.29
2022-08-19T10:18:14.529Z,32.47
2022-08-19T10:20:42.833Z,32.55
2022-08-19T10:23:10.304Z,32.59
2022-08-19T10:25:38.424Z,32.74
2022-08-19T10:28:10.736Z,32.71
2022-08-19T10:30:37.818Z,32.68
2022-08-19T10:33:10.992Z,32.58
2022-08-19T10:35:42.603Z,32.40
2022-08-19T10:38:09.558Z,32.32
2022-08-19T10:40:36.908Z,32.35
2022-08-19T10:43:03.495Z,32.28
2022-08-19T10:45:30.167Z,32.27
2022-08-19T10:47:56.922Z,32.29
2022-08-19T10:50:42.331Z,32.23
2022-08-19T10:53:09.743Z,32.22
2022-08-19T10:55:55.217Z,32.22
2022-08-19T10:58:26.411Z,32.15
2022-08-19T11:00:55.980Z,32.08
2022-08-19T11:03:24.664Z,31.94
2022-08-19T11:06:12.021Z,31.91
2022-08-19T11:08:39.101Z,31.90
2022-08-19T11:11:07.209Z,31.90
2022-08-19T11:13:38.658Z,31.97
2022-08-19T11:16:08.884Z,31.94
2022-08-19T11:18:40.039Z,31.89
2022-08-19T11:21:13.250Z,31.96
2022-08-19T11:23:39.850Z,32.09
2022-08-19T11:26:09.092Z,32.15
2022-08-19T11:28:35.876Z,32.09
2022-08-19T11:31:04.398Z,32.05
2022-08-19T11:33:34.051Z,32.05
2022-08-19T11:36:01.811Z,32.10
2022-08-19T11:38:28.495Z,32.18
2022-08-19T11:41:00.447Z,32.15
2022-08-19T11:43:28.236Z,32.02
2022-08-19T11:45:59.107Z,31.94
2022-08-19T11:51:32.567Z,31.78
2022-08-19T11:54:00.870Z,31.78
2022-08-19T11:56:28.745Z,31.87
2022-08-19T11:58:57.817Z,31.81
2022-08-19T12:01:26.626Z,31.72
2022-08-19T12:03:56.092Z,31.68
2022-08-19T12:06:28.371Z,31.69
2022-08-19T12:08:58.927Z,31.78
2022-08-19T12:11:26.747Z,31.80
2022-08-19T12:13:53.594Z,31.76
2022-08-19T12:16:27.757Z,31.73
2022-08-19T12:18:56.513Z,31.73
2022-08-19T12:21:26.138Z,31.64
2022-08-19T12:23:55.770Z,31.61
2022-08-19T12:26:23.765Z,31.62
2022-08-19T12:28:50.301Z,31.67
2022-08-19T12:31:17.433Z,31.64
2022-08-19T12:33:45.778Z,31.68
2022-08-19T12:36:16.475Z,31.75
2022-08-19T12:38:45.115Z,31.69
2022-08-19T12:41:15.398Z,31.65
2022-08-19T12:43:42.947Z,31.66
2022-08-19T12:46:11.576Z,31.64
2022-08-19T12:48:42.964Z,31.65
2022-08-19T12:51:12.039Z,31.69
2022-08-19T12:53:39.596Z,31.67
2022-08-19T12:56:08.947Z,31.68
2022-08-19T12:58:39.270Z,31.77
2022-08-19T13:01:11.795Z,31.74
2022-08-19T13:03:40.776Z,31.69
2022-08-19T13:06:08.395Z,31.66
2022-08-19T13:08:35.473Z,31.64
2022-08-19T13:11:14.075Z,31.66
2022-08-19T13:13:43.174Z,31.71
2022-08-19T13:16:12.146Z,31.69
2022-08-19T13:18:40.450Z,31.61
2022-08-19T13:21:14.314Z,31.56
2022-08-19T13:23:41.988Z,31.53
2022-08-19T13:26:10.585Z,31.47
2022-08-19T13:28:55.802Z,31.50
2022-08-19T13:31:43.249Z,31.51
2022-08-19T13:34:10.021Z,31.46
2022-08-19T13:36:40.359Z,31.43
2022-08-19T13:39:09.426Z,31.48
2022-08-19T13:44:19.635Z,31.56
2022-08-19T13:46:48.563Z,31.57
2022-08-19T14:02:57.753Z,31.50
2022-08-19T14:05:26.120Z,31.49
2022-08-19T14:07:53.567Z,31.43
2022-08-19T14:10:21.946Z,31.36
2022-08-19T14:12:48.864Z,31.27
2022-08-19T14:15:16.122Z,31.27
2022-08-19T14:17:45.439Z,31.21
2022-08-19T14:20:17.799Z,31.18
2022-08-19T14:22:47.028Z,31.23
2022-08-19T14:25:22.566Z,31.24
2022-08-19T14:27:49.830Z,31.19
2022-08-19T14:30:20.966Z,31.17
2022-08-19T14:32:47.870Z,31.18
2022-08-19T14:35:16.187Z,31.17
2022-08-19T14:37:46.199Z,31.19
2022-08-19T14:40:15.387Z,31.12
2022-08-19T14:42:42.908Z,31.15
2022-08-19T14:45:11.066Z,31.14
2022-08-19T14:47:39.924Z,31.11
2022-08-19T14:50:10.614Z,31.07
2022-08-19T14:52:44.754Z,31.02
2022-08-19T14:55:11.462Z,30.97
2022-08-19T14:57:38.126Z,30.90
2022-08-19T15:00:05.471Z,30.90
2022-08-19T15:02:34.806Z,30.80
2022-08-19T15:05:02.889Z,30.76
2022-08-19T15:07:30.411Z,30.70
2022-08-19T15:09:58.042Z,30.63
2022-08-19T15:12:25.215Z,30.64
2022-08-19T15:14:55.092Z,30.60
2022-08-19T15:17:25.730Z,30.56
2022-08-19T15:20:10.986Z,30.51
2022-08-19T15:22:38.580Z,30.44
2022-08-19T15:25:07.822Z,30.40
2022-08-19T15:27:35.634Z,30.38
2022-08-19T15:30:02.656Z,30.34
2022-08-19T15:32:30.543Z,30.33
2022-08-19T15:34:57.453Z,30.31
2022-08-19T15:37:24.817Z,30.33
2022-08-19T15:39:51.743Z,30.21
2022-08-19T15:42:30.111Z,30.17
2022-08-19T15:45:00.726Z,30.16
2022-08-19T15:47:35.144Z,30.09
2022-08-19T15:53:45.242Z,30.00
2022-08-19T15:56:12.503Z,29.99
2022-08-19T15:59:00.791Z,29.95
2022-08-19T16:01:47.774Z,29.88
2022-08-19T16:07:15.065Z,29.74
2022-08-19T16:09:49.636Z,29.66
2022-08-19T16:12:17.073Z,29.62
2022-08-19T16:14:43.746Z,29.57
2022-08-19T16:17:12.719Z,29.57
2022-08-19T16:19:40.569Z,29.54
2022-08-19T16:22:07.345Z,29.49
2022-08-19T16:24:34.089Z,29.40
2022-08-19T16:27:01.676Z,29.32
2022-08-19T16:29:33.721Z,29.22
2022-08-19T16:32:02.921Z,29.19
2022-08-19T16:34:30.326Z,29.10
2022-08-19T16:36:56.963Z,29.05
2022-08-19T16:39:23.851Z,28.97
2022-08-19T16:41:51.752Z,28.82
2022-08-19T16:44:19.537Z,28.84
2022-08-19T16:46:47.484Z,28.71
2022-08-19T16:49:53.708Z,28.59
2022-08-19T16:52:14.725Z,28.48
2022-08-19T16:54:43.444Z,28.43
2022-08-19T16:57:12.105Z,28.37
2022-08-19T16:59:48.858Z,28.21
2022-08-19T17:02:22.118Z,28.16
2022-08-19T17:04:57.571Z,28.07
2022-08-19T17:07:33.133Z,27.92
2022-08-19T17:10:01.350Z,27.85
2022-08-19T17:12:32.228Z,27.72
2022-08-19T17:15:00.995Z,27.60
2022-08-19T17:17:29.406Z,27.48
2022-08-19T17:19:56.882Z,27.39
2022-08-19T17:22:24.046Z,27.32
2022-08-19T17:24:50.699Z,27.23
2022-08-19T17:27:19.862Z,27.18
2022-08-19T17:29:47.256Z,27.06
2022-08-19T17:32:15.406Z,26.96
2022-08-19T17:34:42.081Z,26.90
2022-08-19T17:37:08.809Z,26.79
2022-08-19T17:39:38.994Z,26.64
2022-08-19T17:42:06.774Z,26.59
2022-08-19T17:44:36.741Z,26.52
2022-08-19T17:47:04.437Z,26.47
2022-08-19T17:49:33.238Z,26.41
2022-08-19T17:54:35.215Z,26.40
2022-08-19T17:57:01.890Z,26.36
2022-08-19T17:59:30.257Z,26.32
2022-08-19T18:01:57.847Z,26.28
2022-08-19T18:04:29.913Z,26.29
2022-08-19T18:06:56.925Z,26.23
2022-08-19T18:09:26.025Z,26.24
2022-08-19T18:12:00.550Z,26.16
2022-08-19T18:14:33.667Z,26.07
2022-08-19T18:17:09.439Z,25.98
2022-08-19T18:19:45.116Z,25.86
2022-08-19T18:22:31.394Z,25.75
2022-08-19T18:25:01.360Z,25.65
2022-08-19T18:27:31.397Z,25.50
2022-08-19T18:30:01.237Z,25.44
2022-08-19T18:32:34.147Z,25.31
2022-08-19T18:35:14.151Z,25.17
2022-08-19T18:37:42.581Z,25.04
2022-08-19T18:40:32.561Z,24.97
2022-08-19T18:43:16.445Z,24.81
2022-08-19T18:46:02.562Z,24.69
2022-08-19T18:48:47.816Z,24.60
2022-08-19T18:51:18.250Z,24.50
2022-08-19T18:53:48.592Z,24.45
2022-08-19T18:56:19.867Z,24.43
2022-08-19T18:58:46.691Z,24.38
2022-08-19T19:01:25.346Z,24.35
2022-08-19T19:03:55.095Z,24.38
2022-08-19T19:06:30.639Z,24.37
2022-08-19T19:09:01.146Z,24.30
2022-08-19T19:11:34.056Z,24.32
2022-08-19T19:14:05.745Z,24.30
2022-08-19T19:16:32.730Z,24.33
2022-08-19T19:18:59.703Z,24.31
2022-08-19T19:21:29.894Z,24.29
2022-08-19T19:23:59.647Z,24.29
2022-08-19T19:26:28.930Z,24.23
2022-08-19T19:28:55.656Z,24.11
2022-08-19T19:31:26.736Z,24.00
2022-08-19T19:33:55.426Z,23.91
2022-08-19T19:36:22.970Z,23.77
2022-08-19T19:38:49.724Z,23.67
2022-08-19T19:41:24.221Z,23.57
2022-08-19T19:44:23.163Z,23.53
2022-08-19T19:46:47.426Z,23.48
2022-08-19T19:49:14.988Z,23.50
2022-08-19T19:51:43.367Z,23.50
2022-08-19T19:55:38.988Z,23.49
2022-08-19T19:58:11.972Z,23.38
2022-08-19T20:01:13.280Z,23.43
2022-08-19T20:03:50.238Z,23.36
2022-08-19T20:06:21.974Z,23.29
2022-08-19T20:09:15.235Z,23.26
2022-08-19T20:11:57.375Z,23.21
2022-08-19T20:14:39.955Z,23.16
2022-08-19T20:17:07.980Z,23.13
2022-08-19T20:19:36.945Z,23.06
2022-08-19T20:22:07.026Z,22.95
2022-08-19T20:24:36.339Z,22.93
2022-08-19T20:27:04.609Z,22.88
2022-08-19T20:29:39.078Z,22.81
2022-08-19T20:32:09.099Z,22.73
2022-08-19T20:34:36.160Z,22.71
2022-08-19T20:37:03.339Z,22.66
2022-08-19T20:39:30.084Z,22.62
2022-08-19T20:41:56.986Z,22.55
2022-08-19T20:44:25.770Z,22.53
2022-08-19T20:46:54.600Z,22.45
2022-08-19T20:49:27.438Z,22.40
2022-08-19T20:51:55.250Z,22.42
2022-08-19T20:54:22.466Z,22.39
2022-08-19T20:56:49.229Z,22.35
2022-08-19T20:59:21.699Z,22.32
2022-08-19T21:01:51.824Z,22.32
2022-08-19T21:04:20.319Z,22.27
2022-08-19T21:06:47.624Z,22.19
2022-08-19T21:09:14.670Z,22.20
2022-08-19T21:11:42.028Z,22.15
2022-08-19T21:14:11.576Z,22.08
2022-08-19T21:16:39.663Z,22.06
2022-08-19T21:19:06.428Z,22.02
2022-08-19T21:21:36.162Z,21.98
2022-08-19T21:24:03.349Z,21.94
2022-08-19T21:26:30.089Z,21.93
2022-08-19T21:28:56.853Z,21.87
2022-08-19T21:31:24.053Z,21.84
2022-08-19T21:33:50.754Z,21.81
2022-08-19T21:36:17.710Z,21.75
2022-08-19T21:38:44.677Z,21.69
2022-08-19T21:41:11.457Z,21.64
2022-08-19T21:43:38.767Z,21.64
2022-08-19T21:46:06.677Z,21.59
2022-08-19T21:48:33.436Z,21.57
2022-08-19T21:51:00.128Z,21.53
2022-08-19T21:56:29.466Z,21.44
2022-08-19T21:58:56.646Z,21.42
2022-08-19T22:01:24.002Z,21.45
2022-08-19T22:03:50.625Z,21.43
2022-08-19T22:06:17.844Z,21.44
2022-08-19T22:08:45.000Z,21.45
2022-08-19T22:11:14.237Z,21.45
2022-08-19T22:13:41.005Z,21.41
2022-08-19T22:16:08.966Z,21.40
2022-08-19T22:18:35.558Z,21.33
2022-08-19T22:21:02.749Z,21.30
2022-08-19T22:23:29.317Z,21.23
2022-08-19T22:25:55.929Z,21.20
2022-08-19T22:28:28.025Z,21.16
2022-08-19T22:30:54.856Z,21.12
2022-08-19T22:33:22.741Z,21.12
2022-08-19T22:35:51.844Z,21.12
2022-08-19T22:38:19.463Z,21.10
2022-08-19T22:40:48.637Z,21.11
2022-08-19T22:43:24.968Z,21.07
2022-08-19T22:45:53.428Z,21.08
2022-08-19T22:48:25.810Z,21.08
2022-08-19T22:51:12.737Z,21.06
2022-08-19T22:53:43.372Z,21.07
2022-08-19T22:56:15.307Z,21.09
2022-08-19T22:58:42.468Z,21.06
2022-08-19T23:01:10.917Z,21.10
2022-08-19T23:03:39.863Z,21.17
2022-08-19T23:06:06.661Z,21.30
2022-08-19T23:08:34.045Z,21.43
2022-08-19T23:11:00.712Z,21.54
2022-08-19T23:13:29.314Z,21.65
2022-08-19T23:15:55.861Z,21.74
2022-08-19T23:18:23.644Z,21.78
2022-08-19T23:20:50.459Z,21.78
2022-08-19T23:23:19.365Z,21.80
2022-08-19T23:25:47.644Z,21.77
2022-08-19T23:28:32.771Z,21.71
2022-08-19T23:30:59.356Z,21.56
2022-08-19T23:33:50.880Z,21.43
2022-08-19T23:36:19.003Z,21.25
2022-08-19T23:38:47.408Z,21.10
2022-08-19T23:41:16.377Z,20.99
2022-08-19T23:43:43.582Z,20.91
2022-08-19T23:46:12.004Z,20.85
2022-08-19T23:48:39.893Z,20.82
2022-08-19T23:51:09.920Z,20.79
2022-08-19T23:53:41.531Z,20.77
2022-08-19T23:57:34.527Z,20.79
